createdAt,value
2022-10-07T00:01:26.334Z,101863.38
2022-10-07T00:03:55.997Z,101859.88
2022-10-07T00:06:25.759Z,101863.34
2022-10-07T00:08:56.244Z,101861.59
2022-10-07T00:11:30.243Z,101860.75
2022-10-07T00:14:01.153Z,101859.81
2022-10-07T00:16:32.177Z,101858.94
2022-10-07T00:19:03.581Z,101855.41
2022-10-07T00:21:35.486Z,101856.19
2022-10-07T00:24:05.588Z,101848.38
2022-10-07T00:26:39.105Z,101846.59
2022-10-07T00:29:09.761Z,101844.81
2022-10-07T00:31:41.749Z,101839.53
2022-10-07T00:34:12.762Z,101841.31
2022-10-07T00:36:43.536Z,101836.00
2022-10-07T00:39:15.579Z,101829.88
2022-10-07T00:41:50.609Z,101829.88
2022-10-07T00:44:41.470Z,101828.06
2022-10-07T00:47:16.467Z,101823.56
2022-10-07T00:49:48.944Z,101823.63
2022-10-07T00:52:20.333Z,101823.56
2022-10-07T00:54:52.946Z,101819.19
2022-10-07T00:57:28.902Z,101813.81
2022-10-07T00:59:58.976Z,101810.28
2022-10-07T01:02:29.396Z,101807.56
2022-10-07T01:05:00.648Z,101806.69
2022-10-07T01:07:31.018Z,101802.31
2022-10-07T01:10:02.020Z,101803.06
2022-10-07T01:12:42.055Z,101797.66
2022-10-07T01:15:16.088Z,101793.28
2022-10-07T01:17:49.835Z,101786.16
2022-10-07T01:20:32.867Z,101792.22
2022-10-07T01:23:14.720Z,101793.88
2022-10-07T01:25:56.247Z,101785.28
2022-10-07T01:28:32.119Z,101794.88
2022-10-07T01:31:05.247Z,101773.72
2022-10-07T01:33:36.155Z,101771.97
2022-10-07T01:36:09.024Z,101767.50
2022-10-07T01:38:40.373Z,101765.84
2022-10-07T01:41:12.602Z,101763.06
2022-10-07T01:43:48.270Z,101756.97
2022-10-07T01:46:22.370Z,101752.53
2022-10-07T01:48:52.223Z,101750.69
2022-10-07T01:51:25.131Z,101747.06
2022-10-07T01:54:02.352Z,101739.06
2022-10-07T01:56:41.921Z,101738.06
2022-10-07T01:59:46.172Z,101723.72
2022-10-07T02:02:21.719Z,101732.41
2022-10-07T02:04:57.071Z,101729.69
2022-10-07T02:07:36.223Z,101726.00
2022-10-07T02:10:14.844Z,101728.38
2022-10-07T02:12:47.687Z,101717.81
2022-10-07T02:15:22.945Z,101722.06
2022-10-07T02:17:55.869Z,101713.25
2022-10-07T02:20:28.962Z,101713.19
2022-10-07T02:23:01.144Z,101712.25
2022-10-07T02:25:34.436Z,101720.09
2022-10-07T02:28:05.652Z,101706.91
2022-10-07T02:30:39.789Z,101705.13
2022-10-07T02:33:10.837Z,101706.91
2022-10-07T02:35:43.835Z,101702.50
2022-10-07T02:38:16.192Z,101695.47
2022-10-07T02:40:57.672Z,101691.91
2022-10-07T02:43:32.404Z,101686.56
2022-10-07T02:46:08.669Z,101682.13
2022-10-07T02:48:42.159Z,101683.03
2022-10-07T02:51:20.951Z,101683.03
2022-10-07T02:53:52.642Z,101683.97
2022-10-07T02:56:24.002Z,101687.50
2022-10-07T02:58:53.993Z,101674.34
2022-10-07T03:01:29.567Z,101680.50
2022-10-07T03:03:59.536Z,101668.25
2022-10-07T03:06:29.588Z,101663.88
2022-10-07T03:09:01.348Z,101661.25
2022-10-07T03:11:31.014Z,101663.84
2022-10-07T03:14:01.740Z,101654.94
2022-10-07T03:16:34.894Z,101662.91
2022-10-07T03:19:05.040Z,101661.94
2022-10-07T03:21:45.322Z,101652.22
2022-10-07T03:24:17.695Z,101646.91
2022-10-07T03:26:50.126Z,101650.38
2022-10-07T03:29:20.739Z,101643.50
2022-10-07T03:31:55.417Z,101644.41
2022-10-07T03:34:27.323Z,101640.06
2022-10-07T03:36:57.503Z,101639.06
2022-10-07T03:39:27.104Z,101640.97
2022-10-07T03:41:57.138Z,101638.41
2022-10-07T03:44:26.867Z,101639.44
2022-10-07T03:47:01.862Z,101635.19
2022-10-07T03:49:31.723Z,101641.38
2022-10-07T03:52:02.965Z,101644.13
2022-10-07T03:54:32.664Z,101647.78
2022-10-07T03:57:02.778Z,101646.16
2022-10-07T03:59:33.122Z,101649.84
2022-10-07T04:02:05.441Z,101646.47
2022-10-07T04:04:36.982Z,101643.09
2022-10-07T04:07:06.948Z,101639.72
2022-10-07T04:09:36.847Z,101637.13
2022-10-07T04:12:07.217Z,101639.91
2022-10-07T04:14:36.918Z,101641.75
2022-10-07T04:17:09.496Z,101641.84
2022-10-07T04:19:39.308Z,101635.78
2022-10-07T04:22:12.394Z,101630.66
2022-10-07T04:24:41.939Z,101631.59
2022-10-07T04:27:23.485Z,101628.19
2022-10-07T04:30:01.349Z,101618.66
2022-10-07T04:32:33.987Z,101627.47
2022-10-07T04:35:05.188Z,101621.38
2022-10-07T04:37:35.332Z,101624.91
2022-10-07T04:40:05.076Z,101616.16
2022-10-07T04:42:48.749Z,101612.72
2022-10-07T04:45:18.451Z,101611.88
2022-10-07T04:47:51.052Z,101615.34
2022-10-07T04:50:21.076Z,101614.53
2022-10-07T04:52:51.382Z,101615.47
2022-10-07T04:55:20.936Z,101612.88
2022-10-07T04:57:50.559Z,101612.03
2022-10-07T05:00:20.232Z,101611.22
2022-10-07T05:02:53.868Z,101603.38
2022-10-07T05:05:25.868Z,101603.41
2022-10-07T05:07:56.397Z,101609.56
2022-10-07T05:10:28.344Z,101596.47
2022-10-07T05:12:57.979Z,101607.94
2022-10-07T05:15:27.588Z,101593.13
2022-10-07T05:17:59.827Z,101593.13
2022-10-07T05:20:31.502Z,101588.78
2022-10-07T05:23:02.297Z,101587.94
2022-10-07T05:25:31.950Z,101595.88
2022-10-07T05:28:01.562Z,101595.88
2022-10-07T05:30:31.149Z,101591.56
2022-10-07T05:33:03.327Z,101579.34
2022-10-07T05:35:33.998Z,101587.28
2022-10-07T05:38:04.380Z,101581.19
2022-10-07T05:40:34.002Z,101584.75
2022-10-07T05:43:03.953Z,101585.69
2022-10-07T05:45:34.354Z,101589.16
2022-10-07T05:48:07.501Z,101576.97
2022-10-07T05:50:37.134Z,101570.84
2022-10-07T05:53:06.672Z,101579.59
2022-10-07T05:55:40.067Z,101573.47
2022-10-07T05:58:10.067Z,101573.47
2022-10-07T06:00:42.370Z,101570.88
2022-10-07T06:21:58.611Z,101568.44
2022-10-07T06:31:59.748Z,101558.72
2022-10-07T06:34:29.877Z,101565.66
2022-10-07T06:37:02.149Z,101570.81
2022-10-07T06:39:31.940Z,101560.25
2022-10-07T06:42:01.825Z,101553.22
2022-10-07T06:44:43.325Z,101557.53
2022-10-07T06:47:15.994Z,101554.00
2022-10-07T06:49:47.512Z,101546.00
2022-10-07T06:52:19.772Z,101550.16
2022-10-07T06:54:50.048Z,101552.63
2022-10-07T06:57:44.188Z,101556.00
2022-10-07T07:00:14.154Z,101547.84
2022-10-07T07:02:44.486Z,101550.28
2022-10-07T07:05:16.859Z,101554.41
2022-10-07T07:07:51.396Z,101557.69
2022-10-07T07:10:21.355Z,101564.50
2022-10-07T07:12:55.548Z,101556.31
2022-10-07T07:15:25.238Z,101553.50
2022-10-07T07:17:54.856Z,101557.78
2022-10-07T07:20:24.455Z,101562.00
2022-10-07T07:22:57.000Z,101560.97
2022-10-07T07:25:26.583Z,101552.13
2022-10-07T07:27:58.695Z,101549.25
2022-10-07T07:30:28.661Z,101555.22
2022-10-07T07:33:01.181Z,101556.75
2022-10-07T07:35:33.397Z,101548.66
2022-10-07T07:38:05.678Z,101556.41
2022-10-07T07:40:35.448Z,101550.91
2022-10-07T07:43:05.108Z,101548.16
2022-10-07T07:45:36.613Z,101548.94
2022-10-07T07:48:07.026Z,101543.59
2022-10-07T07:50:38.049Z,101543.47
2022-10-07T07:53:10.340Z,101545.03
2022-10-07T07:55:40.369Z,101543.91
2022-10-07T07:58:11.973Z,101550.81
2022-10-07T08:00:42.965Z,101550.47
2022-10-07T08:03:12.690Z,101545.81
2022-10-07T08:05:42.356Z,101543.81
2022-10-07T08:08:14.837Z,101543.53
2022-10-07T08:10:51.013Z,101537.94
2022-10-07T08:13:21.637Z,101542.81
2022-10-07T08:15:51.233Z,101540.75
2022-10-07T08:18:21.774Z,101538.69
2022-10-07T08:20:59.150Z,101542.69
2022-10-07T08:23:32.925Z,101536.19
2022-10-07T08:26:03.627Z,101526.97
2022-10-07T08:28:34.806Z,101537.19
2022-10-07T08:31:06.731Z,101530.72
2022-10-07T08:33:39.566Z,101521.59
2022-10-07T08:36:10.660Z,101523.91
2022-10-07T08:38:46.746Z,101518.28
2022-10-07T08:41:26.319Z,101521.44
2022-10-07T08:44:00.517Z,101518.94
2022-10-07T08:46:34.484Z,101513.25
2022-10-07T08:49:07.955Z,101512.88
2022-10-07T08:51:41.879Z,101508.88
2022-10-07T08:54:17.632Z,101510.16
2022-10-07T08:56:47.637Z,101507.94
2022-10-07T08:59:21.904Z,101503.97
2022-10-07T09:01:59.906Z,101490.31
2022-10-07T09:04:39.452Z,101490.69
2022-10-07T09:07:12.497Z,101489.41
2022-10-07T09:09:46.291Z,101489.88
2022-10-07T09:12:22.887Z,101488.66
2022-10-07T09:14:55.164Z,101493.63
2022-10-07T09:17:45.277Z,101491.66
2022-10-07T09:20:19.499Z,101486.75
2022-10-07T09:22:54.926Z,101481.91
2022-10-07T09:25:28.668Z,101476.28
2022-10-07T09:27:58.572Z,101475.22
2022-10-07T09:30:29.620Z,101468.81
2022-10-07T09:33:00.088Z,101468.59
2022-10-07T09:35:32.859Z,101469.25
2022-10-07T09:38:03.758Z,101466.84
2022-10-07T09:40:58.818Z,101456.00
2022-10-07T09:43:29.183Z,101455.75
2022-10-07T09:46:00.691Z,101458.13
2022-10-07T09:48:33.288Z,101454.22
2022-10-07T09:51:15.799Z,101453.78
2022-10-07T09:53:59.214Z,101451.53
2022-10-07T09:56:43.260Z,101443.41
2022-10-07T09:59:31.441Z,101440.34
2022-10-07T10:02:02.639Z,101445.44
2022-10-07T10:04:34.338Z,101440.59
2022-10-07T10:07:06.935Z,101431.56
2022-10-07T10:09:37.084Z,101436.06
2022-10-07T10:12:15.940Z,101431.88
2022-10-07T10:14:52.668Z,101429.72
2022-10-07T10:17:32.376Z,101433.22
2022-10-07T10:20:27.518Z,101424.88
2022-10-07T10:22:57.473Z,101426.38
2022-10-07T10:25:49.728Z,101412.84
2022-10-07T10:28:26.884Z,101418.56
2022-10-07T10:31:00.887Z,101414.72
2022-10-07T10:33:35.425Z,101409.31
2022-10-07T10:36:11.884Z,101396.56
2022-10-07T10:38:48.576Z,101391.16
2022-10-07T10:41:25.910Z,101387.16
2022-10-07T10:44:23.334Z,101380.63
2022-10-07T10:47:00.017Z,101377.63
2022-10-07T10:49:33.057Z,101372.78
2022-10-07T10:52:20.865Z,101376.16
2022-10-07T10:55:03.785Z,101372.28
2022-10-07T10:57:40.484Z,101357.88
2022-10-07T11:00:15.476Z,101371.81
2022-10-07T11:03:06.487Z,101361.84
2022-10-07T11:05:38.806Z,101357.19
2022-10-07T11:08:17.016Z,101361.59
2022-10-07T11:10:50.436Z,101350.59
2022-10-07T11:13:27.372Z,101343.31
2022-10-07T11:16:03.641Z,101338.22
2022-10-07T11:18:36.940Z,101334.97
2022-10-07T11:21:10.230Z,101326.53
2022-10-07T11:23:47.584Z,101322.59
2022-10-07T11:26:22.223Z,101327.75
2022-10-07T11:28:53.036Z,101313.41
2022-10-07T11:31:32.411Z,101311.34
2022-10-07T11:34:18.471Z,101302.75
2022-10-07T11:36:55.778Z,101300.31
2022-10-07T11:39:25.850Z,101305.38
2022-10-07T11:42:00.002Z,101297.41
2022-10-07T11:44:32.714Z,101295.38
2022-10-07T11:47:06.377Z,101283.66
2022-10-07T11:49:39.896Z,101280.06
2022-10-07T11:52:11.144Z,101279.00
2022-10-07T11:54:44.999Z,101270.16
2022-10-07T11:57:24.334Z,101267.13
2022-10-07T11:59:58.631Z,101262.66
2022-10-07T12:02:49.806Z,101259.53
2022-10-07T12:05:50.013Z,101247.63
2022-10-07T12:08:37.215Z,101225.84
2022-10-07T12:11:43.758Z,101230.13
2022-10-07T12:14:43.156Z,101225.50
2022-10-07T12:17:30.320Z,101223.97
2022-10-07T12:20:30.029Z,101217.59
2022-10-07T12:23:30.912Z,101213.22
2022-10-07T12:26:09.174Z,101209.59
2022-10-07T12:28:48.761Z,101199.31
2022-10-07T12:31:54.173Z,101199.25
2022-10-07T12:34:43.537Z,101196.06
2022-10-07T12:37:43.354Z,101191.91
2022-10-07T12:40:19.111Z,101184.88
2022-10-07T12:42:56.621Z,101178.56
2022-10-07T12:45:29.091Z,101169.63
2022-10-07T12:48:00.469Z,101165.03
2022-10-07T12:50:32.787Z,101161.91
2022-10-07T12:53:04.724Z,101153.16
2022-10-07T12:55:37.357Z,101152.94
2022-10-07T12:58:33.569Z,101148.28
2022-10-07T13:01:14.977Z,101141.78
2022-10-07T13:04:14.489Z,101127.41
2022-10-07T13:07:25.501Z,101127.91
2022-10-07T13:10:22.839Z,101122.81
2022-10-07T13:12:53.613Z,101117.16
2022-10-07T13:15:41.406Z,101120.88
2022-10-07T13:22:00.595Z,101108.19
2022-10-07T13:24:31.431Z,101108.28
2022-10-07T13:27:02.222Z,101102.09
2022-10-07T13:29:34.301Z,101101.25
2022-10-07T13:32:16.856Z,101090.69
2022-10-07T13:34:47.065Z,101083.44
2022-10-07T13:37:33.700Z,101074.91
2022-10-07T13:40:22.023Z,101079.41
2022-10-07T13:42:56.329Z,101079.19
2022-10-07T13:45:26.358Z,101073.84
2022-10-07T13:47:58.928Z,101069.06
2022-10-07T13:50:32.446Z,101060.84
2022-10-07T13:53:02.179Z,101065.16
2022-10-07T13:55:32.918Z,101057.13
2022-10-07T13:58:06.593Z,101060.84
2022-10-07T14:00:37.449Z,101047.31
2022-10-07T14:03:17.876Z,101046.13
2022-10-07T14:05:53.000Z,101034.78
2022-10-07T14:08:24.807Z,101026.66
2022-10-07T14:10:56.274Z,101031.69
2022-10-07T14:13:29.113Z,101034.38
2022-10-07T14:16:00.257Z,101036.88
2022-10-07T14:18:32.852Z,101027.44
2022-10-07T14:21:11.187Z,101020.34
2022-10-07T14:23:41.046Z,101013.03
2022-10-07T14:26:14.233Z,101015.13
2022-10-07T14:28:44.782Z,101006.25
2022-10-07T14:31:35.152Z,101012.34
2022-10-07T14:34:27.283Z,101007.13
2022-10-07T14:37:08.115Z,101012.25
2022-10-07T14:39:39.442Z,101008.31
2022-10-07T14:42:13.311Z,100999.63
2022-10-07T14:44:44.026Z,100994.19
2022-10-07T14:47:16.096Z,100993.34
2022-10-07T14:49:48.260Z,100999.84
2022-10-07T14:52:22.516Z,100988.84
2022-10-07T14:54:52.969Z,100989.06
2022-10-07T14:57:22.548Z,100984.91
2022-10-07T14:59:52.156Z,100986.81
2022-10-07T15:02:22.561Z,100974.72
2022-10-07T15:04:54.837Z,100971.63
2022-10-07T15:07:24.919Z,100973.44
2022-10-07T15:09:54.463Z,100973.53
2022-10-07T15:12:24.026Z,100970.31
2022-10-07T15:14:53.930Z,100963.28
2022-10-07T15:17:23.753Z,100959.31
2022-10-07T15:19:57.201Z,100954.06
2022-10-07T15:22:26.900Z,100952.38
2022-10-07T15:24:56.624Z,100949.78
2022-10-07T15:27:26.501Z,100947.63
2022-10-07T15:29:55.979Z,100939.72
2022-10-07T15:32:25.549Z,100933.66
2022-10-07T15:34:58.207Z,100924.91
2022-10-07T15:37:27.967Z,100931.19
2022-10-07T15:39:58.802Z,100926.91
2022-10-07T15:42:28.982Z,100924.13
2022-10-07T15:44:58.556Z,100924.75
2022-10-07T15:47:28.302Z,100923.78
2022-10-07T15:50:00.668Z,100916.97
2022-10-07T15:52:30.229Z,100912.78
2022-10-07T15:55:03.699Z,100917.47
2022-10-07T15:57:36.179Z,100914.16
2022-10-07T16:00:06.102Z,100915.31
2022-10-07T16:02:41.475Z,100913.81
2022-10-07T16:05:14.628Z,100910.88
2022-10-07T16:07:44.148Z,100904.03
2022-10-07T16:10:13.741Z,100911.34
2022-10-07T16:12:44.598Z,100903.78
2022-10-07T16:15:14.356Z,100908.31
2022-10-07T16:17:43.905Z,100900.81
2022-10-07T16:20:18.509Z,100899.19
2022-10-07T16:22:48.325Z,100904.53
2022-10-07T16:25:18.247Z,100903.03
2022-10-07T16:28:00.273Z,100901.59
2022-10-07T16:30:49.123Z,100897.72
2022-10-07T16:33:18.698Z,100892.88
2022-10-07T16:35:50.863Z,100896.97
2022-10-07T16:38:20.780Z,100899.25
2022-10-07T16:40:56.895Z,100889.94
2022-10-07T16:43:26.854Z,100894.97
2022-10-07T16:45:56.459Z,100888.31
2022-10-07T16:48:26.047Z,100891.34
2022-10-07T16:50:58.206Z,100880.41
2022-10-07T16:53:28.639Z,100885.44
2022-10-07T16:55:58.621Z,100884.06
2022-10-07T16:58:28.152Z,100887.34
2022-10-07T17:01:03.268Z,100888.59
2022-10-07T17:03:33.015Z,100889.13
2022-10-07T17:06:07.756Z,100885.56
2022-10-07T17:08:41.901Z,100895.78
2022-10-07T17:11:28.615Z,100891.94
2022-10-07T17:13:58.732Z,100889.72
2022-10-07T17:16:29.448Z,100891.03
2022-10-07T17:18:59.438Z,100886.16
2022-10-07T17:21:31.658Z,100898.16
2022-10-07T17:24:02.372Z,100895.06
2022-10-07T17:26:32.001Z,100898.16
2022-10-07T17:29:03.661Z,100900.34
2022-10-07T17:31:33.964Z,100901.75
2022-10-07T17:34:03.894Z,100904.06
2022-10-07T17:36:36.602Z,100899.06
2022-10-07T17:39:06.534Z,100897.78
2022-10-07T17:41:37.497Z,100903.44
2022-10-07T17:44:09.773Z,100895.00
2022-10-07T17:46:40.379Z,100893.63
2022-10-07T17:49:13.355Z,100901.91
2022-10-07T17:51:46.147Z,100897.22
2022-10-07T17:54:16.828Z,100894.13
2022-10-07T17:56:47.840Z,100890.88
2022-10-07T17:59:17.947Z,100895.75
2022-10-07T18:01:48.194Z,100885.50
2022-10-07T18:04:23.867Z,100897.41
2022-10-07T18:06:58.185Z,100904.81
2022-10-07T18:09:27.856Z,100905.16
2022-10-07T18:12:09.864Z,100911.59
2022-10-07T18:14:54.130Z,100908.34
2022-10-07T18:17:24.971Z,100903.47
2022-10-07T18:19:54.989Z,100900.22
2022-10-07T18:22:27.207Z,100900.59
2022-10-07T18:24:58.461Z,100898.91
2022-10-07T18:27:28.074Z,100897.28
2022-10-07T18:29:57.988Z,100894.06
2022-10-07T18:32:27.887Z,100884.59
2022-10-07T18:34:57.460Z,100886.50
2022-10-07T18:37:30.109Z,100889.50
2022-10-07T18:40:00.728Z,100883.03
2022-10-07T18:42:30.473Z,100880.75
2022-10-07T18:45:00.026Z,100883.75
2022-10-07T18:47:29.601Z,100879.59
2022-10-07T18:49:59.250Z,100888.31
2022-10-07T18:52:31.455Z,100885.03
2022-10-07T18:55:00.989Z,100885.22
2022-10-07T18:57:30.573Z,100881.72
2022-10-07T19:00:00.125Z,100883.50
2022-10-07T19:02:29.699Z,100886.31
2022-10-07T19:04:59.491Z,100886.50
2022-10-07T19:07:31.656Z,100889.84
2022-10-07T19:10:01.193Z,100890.06
2022-10-07T19:12:43.178Z,100889.53
2022-10-07T19:15:13.484Z,100878.34
2022-10-07T19:17:43.018Z,100884.69
2022-10-07T19:20:13.066Z,100882.31
2022-10-07T19:22:45.222Z,100880.94
2022-10-07T19:25:27.189Z,100874.84
2022-10-07T19:27:56.788Z,100879.50
2022-10-07T19:30:26.298Z,100876.09
2022-10-07T19:32:56.034Z,100880.75
2022-10-07T19:35:25.597Z,100880.94
2022-10-07T19:37:57.640Z,100883.78
2022-10-07T19:40:27.482Z,100868.03
2022-10-07T19:42:57.077Z,100872.69
2022-10-07T19:45:26.703Z,100879.84
2022-10-07T19:47:56.430Z,100874.66
2022-10-07T19:50:26.240Z,100876.69
2022-10-07T19:53:00.029Z,100877.75
2022-10-07T19:55:30.044Z,100874.34
2022-10-07T19:57:59.975Z,100878.84
2022-10-07T20:00:31.732Z,100873.75
2022-10-07T20:03:01.274Z,100873.66
2022-10-07T20:05:31.999Z,100873.56
2022-10-07T20:08:09.354Z,100868.59
2022-10-07T20:10:41.091Z,100870.75
2022-10-07T20:13:10.695Z,100866.44
2022-10-07T20:15:40.455Z,100870.06
2022-10-07T20:18:10.067Z,100871.25
2022-10-07T20:20:40.047Z,100867.19
2022-10-07T20:23:12.163Z,100874.53
2022-10-07T20:25:41.757Z,100868.66
2022-10-07T20:28:11.376Z,100872.34
2022-10-07T20:30:41.043Z,100868.16
2022-10-07T20:33:10.586Z,100870.84
2022-10-07T20:35:40.111Z,100871.00
2022-10-07T20:38:12.303Z,100877.41
2022-10-07T20:40:54.263Z,100873.31
2022-10-07T20:43:23.809Z,100869.06
2022-10-07T20:45:59.369Z,100871.81
2022-10-07T20:48:32.064Z,100870.25
2022-10-07T20:51:08.272Z,100880.88
2022-10-07T20:53:40.407Z,100876.47
2022-10-07T20:56:09.968Z,100876.53
2022-10-07T20:58:39.556Z,100877.53
2022-10-07T21:01:09.905Z,100876.81
2022-10-07T21:03:39.930Z,100873.41
2022-10-07T21:06:10.790Z,100877.13
2022-10-07T21:08:43.041Z,100872.03
2022-10-07T21:11:12.548Z,100870.38
2022-10-07T21:13:42.331Z,100874.16
2022-10-07T21:16:11.918Z,100875.63
2022-10-07T21:18:41.603Z,100875.84
2022-10-07T21:21:11.597Z,100867.19
2022-10-07T21:23:43.752Z,100857.81
2022-10-07T21:26:14.245Z,100859.22
2022-10-07T21:28:43.851Z,100855.16
2022-10-07T21:31:17.404Z,100852.19
2022-10-07T21:33:48.844Z,100848.31
2022-10-07T21:36:20.153Z,100847.78
2022-10-07T21:38:58.325Z,100848.31
2022-10-07T21:41:31.080Z,100847.03
2022-10-07T21:44:01.139Z,100836.28
2022-10-07T21:46:32.000Z,100839.53
2022-10-07T21:49:02.068Z,100841.16
2022-10-07T21:51:32.381Z,100833.75
2022-10-07T21:54:05.326Z,100827.53
2022-10-07T21:56:35.943Z,100830.97
2022-10-07T21:59:05.646Z,100826.41
2022-10-07T22:01:35.456Z,100835.97
2022-10-07T22:04:06.155Z,100832.41
2022-10-07T22:06:48.215Z,100828.06
2022-10-07T22:09:21.509Z,100822.66
2022-10-07T22:11:51.629Z,100822.53
2022-10-07T22:14:21.374Z,100827.81
2022-10-07T22:16:50.962Z,100824.25
2022-10-07T22:19:21.219Z,100818.97
2022-10-07T22:21:50.719Z,100815.47
2022-10-07T22:24:23.965Z,100816.47
2022-10-07T22:26:53.797Z,100816.47
2022-10-07T22:29:23.962Z,100812.88
2022-10-07T22:31:53.508Z,100804.03
2022-10-07T22:34:35.528Z,100800.53
2022-10-07T22:37:05.280Z,100804.81
2022-10-07T22:39:37.406Z,100796.94
2022-10-07T22:42:07.267Z,100790.81
2022-10-07T22:44:36.773Z,100795.16
2022-10-07T22:47:06.381Z,100796.03
2022-10-07T22:49:35.920Z,100792.44
2022-10-07T22:52:05.464Z,100791.59
2022-10-07T22:54:37.631Z,100799.44
2022-10-07T22:57:07.484Z,100793.31
2022-10-07T22:59:38.671Z,100797.53
2022-10-07T23:02:09.293Z,100796.53
2022-10-07T23:04:38.859Z,100791.16
2022-10-07T23:07:08.713Z,100781.44
2022-10-07T23:09:40.971Z,100790.19
2022-10-07T23:12:10.480Z,100781.31
2022-10-07T23:14:40.884Z,100785.75
2022-10-07T23:17:10.754Z,100790.97
2022-10-07T23:19:41.967Z,100786.44
2022-10-07T23:22:12.731Z,100782.88
2022-10-07T23:24:44.885Z,100784.59
2022-10-07T23:27:15.060Z,100777.59
2022-10-07T23:29:44.631Z,100771.53
2022-10-07T23:32:14.155Z,100782.81
2022-10-07T23:34:43.690Z,100777.50
2022-10-07T23:37:13.263Z,100763.44
2022-10-07T23:39:45.584Z,100764.28
2022-10-07T23:42:15.103Z,100766.03
2022-10-07T23:44:44.639Z,100767.75
2022-10-07T23:47:14.187Z,100762.59
2022-10-07T23:49:43.942Z,100767.00
2022-10-07T23:52:13.619Z,100764.59
2022-10-07T23:54:45.879Z,100765.78
2022-10-07T23:57:15.456Z,100763.22
2022-10-07T23:59:44.972Z,100765.72
